createdAt,value
2018-06-10T00:00:37.985Z,1002.18
2018-06-10T00:01:43.507Z,1002.24
2018-06-10T00:02:49.040Z,1002.26
2018-06-10T00:03:54.546Z,1002.26
2018-06-10T00:05:00.070Z,1002.24
2018-06-10T00:06:05.583Z,1002.30
2018-06-10T00:07:11.099Z,1002.38
2018-06-10T00:08:16.626Z,1002.48
2018-06-10T00:09:22.147Z,1002.51
2018-06-10T00:10:27.662Z,1002.56
2018-06-10T00:11:33.185Z,1002.59
2018-06-10T00:12:38.703Z,1002.60
2018-06-10T00:13:44.270Z,1002.55
2018-06-10T00:14:49.744Z,1002.52
2018-06-10T00:15:55.256Z,1002.46
2018-06-10T00:17:00.777Z,1002.36
2018-06-10T00:18:06.299Z,1002.39
2018-06-10T00:19:11.830Z,1002.35
2018-06-10T00:20:17.339Z,1002.33
2018-06-10T00:21:22.857Z,1002.32
2018-06-10T00:22:28.373Z,1002.29
2018-06-10T00:23:33.891Z,1002.33
2018-06-10T00:24:39.409Z,1002.37
2018-06-10T00:25:44.938Z,1002.38
2018-06-10T00:26:50.452Z,1002.45
2018-06-10T00:27:55.992Z,1002.50
2018-06-10T00:29:01.486Z,1002.50
2018-06-10T00:30:07.014Z,1002.47
2018-06-10T00:31:12.529Z,1002.47
2018-06-10T00:32:18.057Z,1002.49
2018-06-10T00:33:23.564Z,1002.44
2018-06-10T00:34:29.091Z,1002.41
2018-06-10T00:35:34.605Z,1002.42
2018-06-10T00:36:40.117Z,1002.41
2018-06-10T00:37:45.636Z,1002.44
2018-06-10T00:38:51.169Z,1002.41
2018-06-10T00:39:56.676Z,1002.37
2018-06-10T00:41:02.194Z,1002.30
2018-06-10T00:42:07.730Z,1002.25
2018-06-10T00:43:13.234Z,1002.25
2018-06-10T00:44:18.808Z,1002.23
2018-06-10T00:45:24.276Z,1002.20
2018-06-10T00:46:29.785Z,1002.17
2018-06-10T00:47:35.306Z,1002.16
2018-06-10T00:48:40.826Z,1002.15
2018-06-10T00:49:46.355Z,1002.18
2018-06-10T00:50:51.863Z,1002.16
2018-06-10T00:51:57.380Z,1002.08
2018-06-10T00:53:02.901Z,1002.08
2018-06-10T00:54:08.419Z,1002.06
2018-06-10T00:55:13.939Z,1002.06
2018-06-10T00:56:19.452Z,1002.12
2018-06-10T00:57:24.988Z,1002.13
2018-06-10T00:58:30.595Z,1002.14
2018-06-10T00:59:36.014Z,1002.16
2018-06-10T01:00:41.535Z,1002.17
2018-06-10T01:01:47.070Z,1002.26
2018-06-10T01:02:52.570Z,1002.32
2018-06-10T01:03:58.094Z,1002.35
2018-06-10T01:05:03.609Z,1002.36
2018-06-10T01:06:09.127Z,1002.35
2018-06-10T01:07:14.643Z,1002.25
2018-06-10T01:08:20.166Z,1002.25
2018-06-10T01:09:25.684Z,1002.21
2018-06-10T01:10:31.196Z,1002.22
2018-06-10T01:11:36.713Z,1002.13
2018-06-10T01:12:42.247Z,1002.09
2018-06-10T01:13:47.759Z,1002.10
2018-06-10T01:14:53.282Z,1002.06
2018-06-10T01:15:58.798Z,1002.02
2018-06-10T01:17:04.313Z,1001.99
2018-06-10T01:18:09.836Z,1001.99
2018-06-10T01:19:15.345Z,1001.94
2018-06-10T01:20:20.869Z,1001.91
2018-06-10T01:21:26.383Z,1001.90
2018-06-10T01:22:31.910Z,1001.91
2018-06-10T01:23:37.420Z,1001.89
2018-06-10T01:24:42.935Z,1001.90
2018-06-10T01:25:48.462Z,1001.92
2018-06-10T01:26:53.983Z,1001.90
2018-06-10T01:27:59.494Z,1001.90
2018-06-10T01:29:05.017Z,1001.89
2018-06-10T01:30:10.536Z,1001.92
2018-06-10T01:31:16.050Z,1001.89
2018-06-10T01:32:21.576Z,1001.90
2018-06-10T01:33:27.132Z,1001.89
2018-06-10T01:34:32.606Z,1001.87
2018-06-10T01:35:38.132Z,1001.87
2018-06-10T01:36:43.642Z,1001.89
2018-06-10T01:37:49.155Z,1001.84
2018-06-10T01:38:54.680Z,1001.86
2018-06-10T01:40:00.204Z,1001.84
2018-06-10T01:41:05.715Z,1001.84
2018-06-10T01:42:11.237Z,1001.92
2018-06-10T01:43:16.751Z,1001.89
2018-06-10T01:44:22.264Z,1001.91
2018-06-10T01:45:27.785Z,1001.88
2018-06-10T01:46:33.300Z,1001.90
2018-06-10T01:47:38.829Z,1001.92
2018-06-10T01:48:44.351Z,1001.94
2018-06-10T01:49:49.861Z,1001.86
2018-06-10T01:50:55.374Z,1001.88
2018-06-10T01:52:00.887Z,1001.89
2018-06-10T01:53:06.408Z,1001.89
2018-06-10T01:54:11.965Z,1001.89
2018-06-10T01:55:17.449Z,1001.89
2018-06-10T01:56:22.960Z,1001.89
2018-06-10T01:57:28.485Z,1001.89
2018-06-10T01:58:33.998Z,1001.91
2018-06-10T01:59:39.515Z,1001.85
2018-06-10T02:00:45.038Z,1001.85
2018-06-10T02:01:50.557Z,1001.83
2018-06-10T02:02:56.082Z,1001.79
2018-06-10T02:04:01.587Z,1001.80
2018-06-10T02:05:07.117Z,1001.76
2018-06-10T02:06:12.635Z,1001.71
2018-06-10T02:07:18.153Z,1001.70
2018-06-10T02:08:23.680Z,1001.68
2018-06-10T02:09:29.178Z,1001.69
2018-06-10T02:10:34.698Z,1001.68
2018-06-10T02:11:40.221Z,1001.67
2018-06-10T02:12:45.732Z,1001.64
2018-06-10T02:13:51.253Z,1001.63
2018-06-10T02:14:56.773Z,1001.61
2018-06-10T02:16:02.293Z,1001.63
2018-06-10T02:17:07.806Z,1001.57
2018-06-10T02:18:13.325Z,1001.55
2018-06-10T02:19:18.843Z,1001.53
2018-06-10T02:20:24.366Z,1001.51
2018-06-10T02:21:29.875Z,1001.46
2018-06-10T02:22:35.396Z,1001.39
2018-06-10T02:23:40.966Z,1001.41
2018-06-10T02:24:46.437Z,1001.37
2018-06-10T02:25:51.960Z,1001.31
2018-06-10T02:26:57.466Z,1001.35
2018-06-10T02:28:02.984Z,1001.28
2018-06-10T02:29:08.501Z,1001.29
2018-06-10T02:30:14.026Z,1001.32
2018-06-10T02:31:19.555Z,1001.34
2018-06-10T02:32:25.062Z,1001.32
2018-06-10T02:33:30.584Z,1001.41
2018-06-10T02:34:36.095Z,1001.44
2018-06-10T02:35:41.622Z,1001.48
2018-06-10T02:36:47.129Z,1001.55
2018-06-10T02:37:52.648Z,1001.59
2018-06-10T02:38:58.180Z,1001.56
2018-06-10T02:40:03.684Z,1001.60
2018-06-10T02:41:09.206Z,1001.63
2018-06-10T02:42:14.722Z,1001.66
2018-06-10T02:43:20.240Z,1001.63
2018-06-10T02:44:25.762Z,1001.62
2018-06-10T02:45:31.276Z,1001.61
2018-06-10T02:46:36.801Z,1001.61
2018-06-10T02:47:42.314Z,1001.63
2018-06-10T02:48:47.834Z,1001.59
2018-06-10T02:49:53.346Z,1001.63
2018-06-10T02:50:58.867Z,1001.59
2018-06-10T02:52:04.390Z,1001.60
2018-06-10T02:53:09.912Z,1001.59
2018-06-10T02:54:15.431Z,1001.65
2018-06-10T02:55:20.945Z,1001.63
2018-06-10T02:56:26.457Z,1001.61
2018-06-10T02:57:31.989Z,1001.67
2018-06-10T02:58:37.493Z,1001.65
2018-06-10T02:59:43.012Z,1001.63
2018-06-10T03:00:48.537Z,1001.65
2018-06-10T03:01:54.056Z,1001.63
2018-06-10T03:02:59.569Z,1001.62
2018-06-10T03:04:05.087Z,1001.62
2018-06-10T03:05:10.608Z,1001.61
2018-06-10T03:06:16.129Z,1001.64
2018-06-10T03:07:21.649Z,1001.62
2018-06-10T03:08:27.162Z,1001.64
2018-06-10T03:09:32.737Z,1001.64
2018-06-10T03:10:38.193Z,1001.62
2018-06-10T03:11:43.712Z,1001.66
2018-06-10T03:12:49.234Z,1001.61
2018-06-10T03:13:54.748Z,1001.66
2018-06-10T03:15:00.265Z,1001.68
2018-06-10T03:16:05.785Z,1001.67
2018-06-10T03:17:11.308Z,1001.67
2018-06-10T03:18:16.848Z,1001.71
2018-06-10T03:19:22.342Z,1001.71
2018-06-10T03:20:27.854Z,1001.70
2018-06-10T03:21:33.377Z,1001.73
2018-06-10T03:22:38.894Z,1001.78
2018-06-10T03:23:44.412Z,1001.77
2018-06-10T03:24:49.936Z,1001.82
2018-06-10T03:25:55.456Z,1001.82
2018-06-10T03:27:00.966Z,1001.82
2018-06-10T03:28:06.492Z,1001.85
2018-06-10T03:29:12.015Z,1001.87
2018-06-10T03:30:17.520Z,1001.87
2018-06-10T03:31:23.055Z,1001.87
2018-06-10T03:32:28.617Z,1001.92
2018-06-10T03:33:34.077Z,1001.90
2018-06-10T03:34:39.592Z,1001.89
2018-06-10T03:35:45.113Z,1001.87
2018-06-10T03:36:50.633Z,1001.90
2018-06-10T03:37:56.152Z,1001.92
2018-06-10T03:39:01.675Z,1001.88
2018-06-10T03:40:07.184Z,1001.95
2018-06-10T03:41:12.721Z,1001.94
2018-06-10T03:42:18.225Z,1001.96
2018-06-10T03:43:23.739Z,1002.02
2018-06-10T03:44:29.258Z,1002.02
2018-06-10T03:45:34.776Z,1002.06
2018-06-10T03:46:40.292Z,1002.05
2018-06-10T03:47:45.809Z,1002.03
2018-06-10T03:48:51.330Z,1002.07
2018-06-10T03:49:56.870Z,1002.07
2018-06-10T03:51:02.365Z,1002.06
2018-06-10T03:52:07.895Z,1002.06
2018-06-10T03:53:13.404Z,1002.09
2018-06-10T03:54:18.918Z,1002.09
2018-06-10T03:55:24.447Z,1002.07
2018-06-10T03:56:29.955Z,1002.09
2018-06-10T03:57:35.475Z,1002.03
2018-06-10T03:58:40.990Z,1002.07
2018-06-10T03:59:46.510Z,1002.10
2018-06-10T04:00:52.032Z,1002.07
2018-06-10T04:01:57.546Z,1002.07
2018-06-10T04:03:03.065Z,1002.08
2018-06-10T04:04:08.584Z,1002.10
2018-06-10T04:05:14.105Z,1002.08
2018-06-10T04:06:19.680Z,1002.07
2018-06-10T04:07:25.139Z,1002.07
2018-06-10T04:08:30.664Z,1002.09
2018-06-10T04:09:36.176Z,1002.09
2018-06-10T04:10:41.705Z,1002.10
2018-06-10T04:11:47.209Z,1002.12
2018-06-10T04:12:52.732Z,1002.08
2018-06-10T04:13:58.328Z,1002.04
2018-06-10T04:15:03.764Z,1002.09
2018-06-10T04:16:09.285Z,1002.10
2018-06-10T04:17:14.809Z,1002.11
2018-06-10T04:18:20.317Z,1002.11
2018-06-10T04:19:25.838Z,1002.10
2018-06-10T04:20:31.356Z,1002.06
2018-06-10T04:21:36.874Z,1002.05
2018-06-10T04:22:42.452Z,1002.02
2018-06-10T04:23:47.909Z,1002.02
2018-06-10T04:24:53.430Z,1001.99
2018-06-10T04:25:58.943Z,1002.01
2018-06-10T04:27:04.468Z,1002.00
2018-06-10T04:28:09.987Z,1001.97
2018-06-10T04:29:15.503Z,1001.98
2018-06-10T04:30:21.025Z,1002.00
2018-06-10T04:31:26.537Z,1002.01
2018-06-10T04:32:32.065Z,1002.05
2018-06-10T04:33:37.576Z,1002.02
2018-06-10T04:34:43.099Z,1002.06
2018-06-10T04:35:48.618Z,1002.05
2018-06-10T04:36:54.131Z,1002.03
2018-06-10T04:37:59.644Z,1002.00
2018-06-10T04:39:05.172Z,1002.00
2018-06-10T04:40:10.685Z,1002.02
2018-06-10T04:41:16.204Z,1002.01
2018-06-10T04:42:21.724Z,1002.01
2018-06-10T04:43:27.245Z,1002.03
2018-06-10T04:44:32.760Z,1002.01
2018-06-10T04:45:38.274Z,1002.03
2018-06-10T04:46:43.802Z,1002.01
2018-06-10T04:47:49.316Z,1001.99
2018-06-10T04:48:54.831Z,1001.99
2018-06-10T04:50:00.353Z,1001.98
2018-06-10T04:51:05.869Z,1001.99
2018-06-10T04:52:11.383Z,1002.01
2018-06-10T04:53:16.904Z,1001.99
2018-06-10T04:54:22.424Z,1001.99
2018-06-10T04:55:27.935Z,1001.96
2018-06-10T04:56:33.455Z,1001.99
2018-06-10T04:57:38.976Z,1001.99
2018-06-10T04:58:44.498Z,1001.97
2018-06-10T04:59:50.015Z,1001.98
2018-06-10T05:00:55.538Z,1001.96
2018-06-10T05:02:01.047Z,1001.99
2018-06-10T05:03:06.568Z,1002.02
2018-06-10T05:04:12.082Z,1002.02
2018-06-10T05:05:17.605Z,1002.06
2018-06-10T05:06:23.123Z,1002.07
2018-06-10T05:07:28.636Z,1002.10
2018-06-10T05:08:34.156Z,1002.10
2018-06-10T05:09:39.674Z,1002.13
2018-06-10T05:10:45.199Z,1002.14
2018-06-10T05:11:50.709Z,1002.11
2018-06-10T05:12:56.230Z,1002.12
2018-06-10T05:14:01.749Z,1002.12
2018-06-10T05:15:07.270Z,1002.13
2018-06-10T05:16:12.783Z,1002.16
2018-06-10T05:17:18.389Z,1002.14
2018-06-10T05:18:23.826Z,1002.19
2018-06-10T05:19:29.405Z,1002.16
2018-06-10T05:20:34.856Z,1002.16
2018-06-10T05:21:40.380Z,1002.12
2018-06-10T05:22:45.898Z,1002.11
2018-06-10T05:23:51.414Z,1002.14
2018-06-10T05:24:56.929Z,1002.12
2018-06-10T05:26:02.455Z,1002.11
2018-06-10T05:27:07.974Z,1002.10
2018-06-10T05:28:13.484Z,1002.11
2018-06-10T05:29:19.004Z,1002.13
2018-06-10T05:30:24.520Z,1002.09
2018-06-10T05:31:30.038Z,1002.13
2018-06-10T05:32:35.578Z,1002.15
2018-06-10T05:33:41.085Z,1002.13
2018-06-10T05:34:46.604Z,1002.13
2018-06-10T05:35:52.116Z,1002.12
2018-06-10T05:36:57.634Z,1002.10
2018-06-10T05:38:03.147Z,1002.08
2018-06-10T05:39:08.665Z,1002.09
2018-06-10T05:40:14.206Z,1002.09
2018-06-10T05:41:19.702Z,1002.04
2018-06-10T05:42:25.237Z,1002.05
2018-06-10T05:43:30.743Z,1002.01
2018-06-10T05:44:36.257Z,1002.06
2018-06-10T05:45:41.789Z,1002.05
2018-06-10T05:46:47.298Z,1002.07
2018-06-10T05:47:52.827Z,1002.11
2018-06-10T05:48:58.332Z,1002.08
2018-06-10T05:50:03.851Z,1002.07
2018-06-10T05:51:09.379Z,1002.09
2018-06-10T05:52:14.917Z,1002.14
2018-06-10T05:53:20.405Z,1002.11
2018-06-10T05:54:25.923Z,1002.11
2018-06-10T05:55:31.443Z,1002.13
2018-06-10T05:56:36.961Z,1002.15
2018-06-10T05:57:42.483Z,1002.16
2018-06-10T05:58:47.995Z,1002.19
2018-06-10T05:59:53.519Z,1002.20
2018-06-10T06:00:59.060Z,1002.25
2018-06-10T06:02:04.556Z,1002.23
2018-06-10T06:03:10.071Z,1002.24
2018-06-10T06:04:15.589Z,1002.27
2018-06-10T06:05:21.104Z,1002.28
2018-06-10T06:06:26.624Z,1002.25
2018-06-10T06:07:32.143Z,1002.26
2018-06-10T06:08:37.666Z,1002.26
2018-06-10T06:09:43.183Z,1002.24
2018-06-10T06:10:48.704Z,1002.24
2018-06-10T06:11:54.219Z,1002.21
2018-06-10T06:12:59.739Z,1002.26
2018-06-10T06:14:05.256Z,1002.25
2018-06-10T06:15:10.773Z,1002.24
2018-06-10T06:16:16.294Z,1002.26
2018-06-10T06:17:21.812Z,1002.22
2018-06-10T06:18:27.331Z,1002.28
2018-06-10T06:19:32.850Z,1002.25
2018-06-10T06:20:38.366Z,1002.27
2018-06-10T06:21:43.885Z,1002.23
2018-06-10T06:22:49.435Z,1002.26
2018-06-10T06:23:54.941Z,1002.25
2018-06-10T06:25:00.445Z,1002.25
2018-06-10T06:26:05.970Z,1002.27
2018-06-10T06:27:11.489Z,1002.29
2018-06-10T06:28:17.005Z,1002.27
2018-06-10T06:29:22.518Z,1002.30
2018-06-10T06:30:28.038Z,1002.29
2018-06-10T06:31:33.553Z,1002.22
2018-06-10T06:32:39.075Z,1002.27
2018-06-10T06:33:44.590Z,1002.25
2018-06-10T06:34:50.105Z,1002.26
2018-06-10T06:35:55.629Z,1002.25
2018-06-10T06:37:01.144Z,1002.27
2018-06-10T06:38:06.671Z,1002.26
2018-06-10T06:39:12.184Z,1002.26
2018-06-10T06:40:17.696Z,1002.25
2018-06-10T06:41:23.217Z,1002.22
2018-06-10T06:42:28.737Z,1002.22
2018-06-10T06:43:34.265Z,1002.21
2018-06-10T06:44:39.779Z,1002.25
2018-06-10T06:45:45.295Z,1002.26
2018-06-10T06:46:50.814Z,1002.31
2018-06-10T06:47:56.339Z,1002.30
2018-06-10T06:49:01.850Z,1002.31
2018-06-10T06:50:07.369Z,1002.29
2018-06-10T06:51:12.886Z,1002.26
2018-06-10T06:52:18.413Z,1002.28
2018-06-10T06:53:23.924Z,1002.26
2018-06-10T06:54:29.485Z,1002.24
2018-06-10T06:55:35.009Z,1002.20
2018-06-10T06:56:40.478Z,1002.19
2018-06-10T06:57:45.996Z,1002.19
2018-06-10T06:58:51.517Z,1002.20
2018-06-10T06:59:57.035Z,1002.20
2018-06-10T07:01:02.551Z,1002.24
2018-06-10T07:02:08.077Z,1002.23
2018-06-10T07:03:13.596Z,1002.25
2018-06-10T07:04:19.115Z,1002.27
2018-06-10T07:05:24.633Z,1002.28
2018-06-10T07:06:30.151Z,1002.29
2018-06-10T07:07:35.665Z,1002.36
2018-06-10T07:08:41.197Z,1002.38
2018-06-10T07:09:46.704Z,1002.42
2018-06-10T07:10:52.225Z,1002.40
2018-06-10T07:11:57.813Z,1002.38
2018-06-10T07:13:03.263Z,1002.39
2018-06-10T07:14:08.785Z,1002.42
2018-06-10T07:15:14.303Z,1002.38
2018-06-10T07:16:19.816Z,1002.41
2018-06-10T07:17:25.334Z,1002.40
2018-06-10T07:18:30.853Z,1002.43
2018-06-10T07:19:36.384Z,1002.44
2018-06-10T07:20:41.895Z,1002.44
2018-06-10T07:21:47.422Z,1002.44
2018-06-10T07:22:52.934Z,1002.46
2018-06-10T07:23:58.455Z,1002.47
2018-06-10T07:25:03.975Z,1002.45
2018-06-10T07:26:09.502Z,1002.47
2018-06-10T07:27:15.053Z,1002.45
2018-06-10T07:28:20.535Z,1002.45
2018-06-10T07:29:26.047Z,1002.42
2018-06-10T07:30:31.624Z,1002.39
2018-06-10T07:31:37.080Z,1002.40
2018-06-10T07:32:42.613Z,1002.36
2018-06-10T07:33:48.119Z,1002.43
2018-06-10T07:34:53.654Z,1002.42
2018-06-10T07:35:59.165Z,1002.40
2018-06-10T07:37:04.731Z,1002.38
2018-06-10T07:38:10.196Z,1002.37
2018-06-10T07:39:15.717Z,1002.38
2018-06-10T07:40:21.242Z,1002.37
2018-06-10T07:41:26.766Z,1002.37
2018-06-10T07:42:32.275Z,1002.41
2018-06-10T07:43:37.797Z,1002.41
2018-06-10T07:44:43.311Z,1002.40
2018-06-10T07:45:48.830Z,1002.39
2018-06-10T07:46:54.347Z,1002.35
2018-06-10T07:47:59.868Z,1002.33
2018-06-10T07:49:05.391Z,1002.34
2018-06-10T07:50:10.908Z,1002.38
2018-06-10T07:51:16.431Z,1002.35
2018-06-10T07:52:21.947Z,1002.38
2018-06-10T07:53:27.464Z,1002.37
2018-06-10T07:54:32.993Z,1002.36
2018-06-10T07:55:38.549Z,1002.35
2018-06-10T07:56:44.031Z,1002.36
2018-06-10T07:57:49.547Z,1002.40
2018-06-10T07:58:55.079Z,1002.40
2018-06-10T08:00:00.629Z,1002.40
2018-06-10T08:01:06.095Z,1002.41
2018-06-10T08:02:11.619Z,1002.41
2018-06-10T08:03:17.138Z,1002.42
2018-06-10T08:04:22.658Z,1002.40
2018-06-10T08:05:28.233Z,1002.44
2018-06-10T08:06:33.692Z,1002.36
2018-06-10T08:07:39.217Z,1002.36
2018-06-10T08:08:44.739Z,1002.35
2018-06-10T08:09:50.253Z,1002.38
2018-06-10T08:10:55.774Z,1002.37
2018-06-10T08:12:01.347Z,1002.38
2018-06-10T08:13:06.815Z,1002.41
2018-06-10T08:14:12.344Z,1002.41
2018-06-10T08:15:17.863Z,1002.40
2018-06-10T08:16:23.367Z,1002.42
2018-06-10T08:17:28.888Z,1002.42
2018-06-10T08:18:34.417Z,1002.41
2018-06-10T08:19:39.932Z,1002.38
2018-06-10T08:20:45.449Z,1002.39
2018-06-10T08:21:50.965Z,1002.37
2018-06-10T08:22:56.489Z,1002.38
2018-06-10T08:24:02.011Z,1002.35
2018-06-10T08:25:07.530Z,1002.38
2018-06-10T08:26:13.051Z,1002.36
2018-06-10T08:27:18.567Z,1002.32
2018-06-10T08:28:24.086Z,1002.32
2018-06-10T08:29:29.607Z,1002.35
2018-06-10T08:30:35.126Z,1002.37
2018-06-10T08:31:40.653Z,1002.36
2018-06-10T08:32:46.169Z,1002.37
2018-06-10T08:33:51.682Z,1002.38
2018-06-10T08:34:57.195Z,1002.35
2018-06-10T08:36:02.730Z,1002.37
2018-06-10T08:37:08.238Z,1002.39
2018-06-10T08:38:13.755Z,1002.37
2018-06-10T08:39:19.274Z,1002.36
2018-06-10T08:40:24.802Z,1002.37
2018-06-10T08:41:30.324Z,1002.31
2018-06-10T08:42:35.840Z,1002.32
2018-06-10T08:43:41.363Z,1002.30
2018-06-10T08:44:46.900Z,1002.29
2018-06-10T08:45:52.396Z,1002.30
2018-06-10T08:46:57.924Z,1002.26
2018-06-10T08:48:03.444Z,1002.29
2018-06-10T08:49:08.961Z,1002.28
2018-06-10T08:50:14.473Z,1002.29
2018-06-10T08:51:20.019Z,1002.26
2018-06-10T08:52:25.514Z,1002.25
2018-06-10T08:53:31.047Z,1002.29
2018-06-10T08:54:36.550Z,1002.25
2018-06-10T08:55:42.075Z,1002.29
2018-06-10T08:56:47.585Z,1002.29
2018-06-10T08:57:53.127Z,1002.24
2018-06-10T08:58:58.626Z,1002.21
2018-06-10T09:00:04.146Z,1002.20
2018-06-10T09:01:09.666Z,1002.20
2018-06-10T09:02:15.194Z,1002.21
2018-06-10T09:03:20.820Z,1002.20
2018-06-10T09:04:26.233Z,1002.24
2018-06-10T09:05:31.746Z,1002.24
2018-06-10T09:06:37.264Z,1002.24
2018-06-10T09:07:42.792Z,1002.27
2018-06-10T09:08:48.486Z,1002.27
2018-06-10T09:09:53.833Z,1002.31
2018-06-10T09:10:59.350Z,1002.36
2018-06-10T09:12:04.865Z,1002.38
2018-06-10T09:13:10.396Z,1002.35
2018-06-10T09:14:15.922Z,1002.36
2018-06-10T09:15:21.428Z,1002.37
2018-06-10T09:16:26.946Z,1002.29
2018-06-10T09:17:32.592Z,1002.31
2018-06-10T09:18:37.989Z,1002.27
2018-06-10T09:19:43.504Z,1002.25
2018-06-10T09:20:49.115Z,1002.28
2018-06-10T09:21:54.551Z,1002.25
2018-06-10T09:23:00.065Z,1002.30
2018-06-10T09:24:05.585Z,1002.23
2018-06-10T09:25:11.103Z,1002.21
2018-06-10T09:26:16.626Z,1002.22
2018-06-10T09:27:22.146Z,1002.20
2018-06-10T09:28:27.661Z,1002.22
2018-06-10T09:29:33.182Z,1002.18
2018-06-10T09:30:38.708Z,1002.19
2018-06-10T09:31:44.230Z,1002.20
2018-06-10T09:32:49.744Z,1002.18
2018-06-10T09:33:55.264Z,1002.17
2018-06-10T09:35:00.790Z,1002.19
2018-06-10T09:36:06.305Z,1002.14
2018-06-10T09:37:11.825Z,1002.15
2018-06-10T09:38:17.363Z,1002.19
2018-06-10T09:39:22.863Z,1002.16
2018-06-10T09:40:28.384Z,1002.19
2018-06-10T09:41:33.912Z,1002.19
2018-06-10T09:42:39.443Z,1002.14
2018-06-10T09:43:44.957Z,1002.19
2018-06-10T09:44:50.468Z,1002.16
2018-06-10T09:45:55.987Z,1002.18
2018-06-10T09:47:01.503Z,1002.18
2018-06-10T09:48:07.027Z,1002.19
2018-06-10T09:49:12.544Z,1002.21
2018-06-10T09:50:18.067Z,1002.19
2018-06-10T09:51:23.597Z,1002.18
2018-06-10T09:52:29.114Z,1002.17
2018-06-10T09:53:34.630Z,1002.20
2018-06-10T09:54:40.145Z,1002.18
2018-06-10T09:55:45.677Z,1002.16
2018-06-10T09:56:51.199Z,1002.25
2018-06-10T09:57:56.715Z,1002.19
2018-06-10T09:59:02.236Z,1002.21
2018-06-10T10:00:07.751Z,1002.22
2018-06-10T10:01:13.280Z,1002.21
2018-06-10T10:02:18.805Z,1002.28
2018-06-10T10:03:24.315Z,1002.25
2018-06-10T10:04:29.847Z,1002.27
2018-06-10T10:05:35.354Z,1002.28
2018-06-10T10:06:40.869Z,1002.27
2018-06-10T10:07:46.398Z,1002.29
2018-06-10T10:08:51.919Z,1002.29
2018-06-10T10:09:57.445Z,1002.25
2018-06-10T10:11:02.966Z,1002.26
2018-06-10T10:12:08.482Z,1002.28
2018-06-10T10:13:14.003Z,1002.27
2018-06-10T10:14:19.517Z,1002.32
2018-06-10T10:15:25.047Z,1002.31
2018-06-10T10:16:30.558Z,1002.28
2018-06-10T10:17:36.076Z,1002.28
2018-06-10T10:18:41.609Z,1002.29
2018-06-10T10:19:47.113Z,1002.27
2018-06-10T10:20:52.645Z,1002.28
2018-06-10T10:21:58.158Z,1002.28
2018-06-10T10:23:03.684Z,1002.32
2018-06-10T10:24:09.197Z,1002.33
2018-06-10T10:25:14.724Z,1002.29
2018-06-10T10:26:20.239Z,1002.28
2018-06-10T10:27:25.762Z,1002.33
2018-06-10T10:28:31.279Z,1002.31
2018-06-10T10:29:36.802Z,1002.32
2018-06-10T10:30:42.323Z,1002.31
2018-06-10T10:31:47.872Z,1002.34
2018-06-10T10:32:53.364Z,1002.34
2018-06-10T10:33:58.906Z,1002.32
2018-06-10T10:35:04.403Z,1002.32
2018-06-10T10:36:09.923Z,1002.34
2018-06-10T10:37:15.442Z,1002.33
2018-06-10T10:38:20.963Z,1002.29
2018-06-10T10:39:26.483Z,1002.35
2018-06-10T10:40:32.012Z,1002.33
2018-06-10T10:41:37.628Z,1002.32
2018-06-10T10:42:43.056Z,1002.30
2018-06-10T10:43:48.561Z,1002.30
2018-06-10T10:44:54.086Z,1002.30
2018-06-10T10:45:59.607Z,1002.31
2018-06-10T10:47:05.135Z,1002.31
2018-06-10T10:48:10.654Z,1002.27
2018-06-10T10:49:16.182Z,1002.29
2018-06-10T10:50:21.695Z,1002.28
2018-06-10T10:51:27.225Z,1002.29
2018-06-10T10:52:32.791Z,1002.27
2018-06-10T10:53:38.249Z,1002.26
2018-06-10T10:54:43.775Z,1002.28
2018-06-10T10:55:49.297Z,1002.29
2018-06-10T10:56:54.811Z,1002.33
2018-06-10T10:58:00.339Z,1002.33
2018-06-10T10:59:05.850Z,1002.29
2018-06-10T11:00:11.376Z,1002.36
2018-06-10T11:01:16.899Z,1002.37
2018-06-10T11:02:22.427Z,1002.37
2018-06-10T11:03:27.933Z,1002.32
2018-06-10T11:04:33.453Z,1002.28
2018-06-10T11:05:39.000Z,1002.29
2018-06-10T11:06:44.497Z,1002.28
2018-06-10T11:07:50.019Z,1002.27
2018-06-10T11:08:55.549Z,1002.26
2018-06-10T11:10:01.068Z,1002.27
2018-06-10T11:11:06.590Z,1002.29
2018-06-10T11:12:12.097Z,1002.31
2018-06-10T11:13:17.624Z,1002.32
2018-06-10T11:14:23.152Z,1002.31
2018-06-10T11:15:28.666Z,1002.30
2018-06-10T11:16:34.186Z,1002.35
2018-06-10T11:17:39.708Z,1002.35
2018-06-10T11:18:45.247Z,1002.36
2018-06-10T11:19:50.748Z,1002.36
2018-06-10T11:20:56.292Z,1002.41
2018-06-10T11:22:01.783Z,1002.37
2018-06-10T11:23:07.318Z,1002.35
2018-06-10T11:24:12.847Z,1002.37
2018-06-10T11:25:18.354Z,1002.38
2018-06-10T11:26:23.880Z,1002.39
2018-06-10T11:27:29.403Z,1002.36
2018-06-10T11:28:34.925Z,1002.35
2018-06-10T11:29:40.444Z,1002.37
2018-06-10T11:30:45.975Z,1002.33
2018-06-10T11:31:51.474Z,1002.35
2018-06-10T11:32:56.992Z,1002.30
2018-06-10T11:34:02.519Z,1002.32
2018-06-10T11:35:08.048Z,1002.31
2018-06-10T11:36:13.565Z,1002.30
2018-06-10T11:37:19.086Z,1002.32
2018-06-10T11:38:24.604Z,1002.31
2018-06-10T11:39:30.125Z,1002.34
2018-06-10T11:40:35.654Z,1002.33
2018-06-10T11:41:41.166Z,1002.36
2018-06-10T11:42:46.685Z,1002.34
2018-06-10T11:43:52.206Z,1002.33
2018-06-10T11:44:57.730Z,1002.32
2018-06-10T11:46:03.250Z,1002.30
2018-06-10T11:47:08.770Z,1002.31
2018-06-10T11:48:14.291Z,1002.34
2018-06-10T11:49:19.811Z,1002.33
2018-06-10T11:50:25.337Z,1002.30
2018-06-10T11:51:30.863Z,1002.34
2018-06-10T11:52:36.377Z,1002.30
2018-06-10T11:53:41.897Z,1002.30
2018-06-10T11:54:47.442Z,1002.29
2018-06-10T11:55:52.938Z,1002.35
2018-06-10T11:56:58.457Z,1002.34
2018-06-10T11:58:03.988Z,1002.31
2018-06-10T11:59:09.501Z,1002.30
2018-06-10T12:00:15.024Z,1002.31
2018-06-10T12:01:20.570Z,1002.29
2018-06-10T12:02:26.070Z,1002.25
2018-06-10T12:03:31.591Z,1002.28
2018-06-10T12:04:37.105Z,1002.28
2018-06-10T12:05:42.639Z,1002.31
2018-06-10T12:06:48.151Z,1002.30
2018-06-10T12:07:53.719Z,1002.32
2018-06-10T12:08:59.193Z,1002.30
2018-06-10T12:10:04.713Z,1002.25
2018-06-10T12:11:10.248Z,1002.24
2018-06-10T12:12:15.789Z,1002.25
2018-06-10T12:13:21.280Z,1002.23
2018-06-10T12:14:26.802Z,1002.25
2018-06-10T12:15:32.329Z,1002.23
2018-06-10T12:16:37.874Z,1002.27
2018-06-10T12:17:43.372Z,1002.25
2018-06-10T12:18:48.889Z,1002.27
2018-06-10T12:19:54.411Z,1002.26
2018-06-10T12:20:59.938Z,1002.25
2018-06-10T12:22:05.456Z,1002.21
2018-06-10T12:23:10.995Z,1002.24
2018-06-10T12:24:16.497Z,1002.22
2018-06-10T12:25:22.020Z,1002.22
2018-06-10T12:26:27.543Z,1002.22
2018-06-10T12:27:33.073Z,1002.22
2018-06-10T12:28:38.633Z,1002.18
2018-06-10T12:29:44.119Z,1002.19
2018-06-10T12:30:49.631Z,1002.19
2018-06-10T12:31:55.149Z,1002.20
2018-06-10T12:33:00.673Z,1002.21
2018-06-10T12:34:06.205Z,1002.21
2018-06-10T12:35:11.796Z,1002.21
2018-06-10T12:36:17.255Z,1002.18
2018-06-10T12:37:22.768Z,1002.15
2018-06-10T12:38:28.282Z,1002.15
2018-06-10T12:39:33.805Z,1002.16
2018-06-10T12:40:39.325Z,1002.10
2018-06-10T12:41:44.852Z,1002.16
2018-06-10T12:42:50.373Z,1002.13
2018-06-10T12:43:55.890Z,1002.11
2018-06-10T12:45:01.416Z,1002.16
2018-06-10T12:46:06.951Z,1002.14
2018-06-10T12:47:12.461Z,1002.15
2018-06-10T12:48:17.979Z,1002.13
2018-06-10T12:49:23.570Z,1002.09
2018-06-10T12:50:29.019Z,1002.11
2018-06-10T12:51:34.547Z,1002.10
2018-06-10T12:52:40.066Z,1002.11
2018-06-10T12:53:45.591Z,1002.07
2018-06-10T12:54:51.114Z,1002.06
2018-06-10T12:55:56.626Z,1002.02
2018-06-10T12:57:02.153Z,1002.00
2018-06-10T12:58:07.734Z,1002.00
2018-06-10T12:59:13.199Z,1002.04
2018-06-10T13:00:18.719Z,1002.02
2018-06-10T13:01:24.271Z,1002.06
2018-06-10T13:02:29.766Z,1002.02
2018-06-10T13:03:35.291Z,1002.05
2018-06-10T13:04:40.817Z,1002.05
2018-06-10T13:05:46.331Z,1002.07
2018-06-10T13:06:51.844Z,1002.04
2018-06-10T13:07:57.368Z,1002.03
2018-06-10T13:09:02.890Z,1002.11
2018-06-10T13:10:08.418Z,1002.08
2018-06-10T13:11:13.948Z,1002.08
2018-06-10T13:12:19.460Z,1002.08